createdAt,value
2023-02-22T00:01:38.915Z,7.88
2023-02-22T00:04:08.228Z,8.27
2023-02-22T00:06:36.511Z,8.65
2023-02-22T00:09:04.879Z,8.68
2023-02-22T00:14:04.638Z,7.88
2023-02-22T00:16:36.246Z,7.88
2023-02-22T00:19:04.470Z,8.65
2023-02-22T00:21:32.722Z,7.60
2023-02-22T00:26:29.385Z,7.35
2023-02-22T00:28:57.568Z,7.32
2023-02-22T00:31:26.001Z,8.43
2023-02-22T00:33:54.439Z,8.27
2023-02-22T00:38:50.541Z,8.50
2023-02-22T00:41:19.344Z,7.57
2023-02-22T00:43:47.768Z,8.02
2023-02-22T00:48:44.072Z,8.43
2023-02-22T00:51:12.383Z,8.13
2023-02-22T00:53:40.562Z,7.70
2023-02-22T00:56:09.181Z,7.82
2023-02-22T00:58:37.503Z,7.05
2023-02-22T01:01:06.701Z,7.85
2023-02-22T01:03:35.096Z,7.70
2023-02-22T01:08:32.800Z,6.63
2023-02-22T01:13:29.176Z,6.72
2023-02-22T01:18:25.442Z,6.97
2023-02-22T01:20:54.074Z,6.82
2023-02-22T01:25:50.460Z,6.65
2023-02-22T01:30:46.813Z,7.22
2023-02-22T01:35:46.278Z,6.68
2023-02-22T01:40:47.250Z,6.78
2023-02-22T01:43:23.688Z,8.02
2023-02-22T01:45:55.728Z,7.72
2023-02-22T01:48:26.998Z,6.78
2023-02-22T01:51:03.026Z,7.03
2023-02-22T01:53:55.432Z,7.78
2023-02-22T01:56:29.927Z,7.05
2023-02-22T01:59:02.817Z,6.28
2023-02-22T02:01:31.694Z,7.05
2023-02-22T02:04:04.517Z,7.05
2023-02-22T02:06:35.284Z,6.57
2023-02-22T02:09:21.939Z,7.32
2023-02-22T02:11:50.847Z,6.60
2023-02-22T02:14:22.615Z,6.32
2023-02-22T02:16:53.780Z,6.50
2023-02-22T02:19:53.685Z,6.63
2023-02-22T02:22:34.611Z,6.68
2023-02-22T02:25:24.420Z,6.22
2023-02-22T02:28:18.650Z,7.00
2023-02-22T02:31:30.342Z,6.38
2023-02-22T02:34:29.212Z,6.20
2023-02-22T02:37:11.680Z,6.53
2023-02-22T02:40:12.739Z,7.28
2023-02-22T02:42:56.310Z,5.97
2023-02-22T02:45:36.567Z,6.57
2023-02-22T02:48:09.714Z,6.30
2023-02-22T02:50:48.648Z,6.72
2023-02-22T02:53:22.591Z,6.72
2023-02-22T02:55:51.258Z,5.70
2023-02-22T03:00:53.034Z,6.53
2023-02-22T03:03:48.434Z,6.10
2023-02-22T03:06:38.545Z,6.95
2023-02-22T03:09:44.291Z,5.88
2023-02-22T03:12:26.426Z,6.68
2023-02-22T03:15:07.187Z,5.13
2023-02-22T03:17:43.912Z,5.95
2023-02-22T03:20:12.105Z,6.20
2023-02-22T03:22:52.345Z,6.57
2023-02-22T03:25:51.918Z,5.72
2023-02-22T03:28:22.967Z,5.25
2023-02-22T03:31:08.092Z,5.75
2023-02-22T03:33:42.852Z,6.38
2023-02-22T03:36:20.364Z,6.47
2023-02-22T03:41:22.335Z,5.47
2023-02-22T03:43:58.368Z,6.22
2023-02-22T03:46:28.088Z,5.75
2023-02-22T03:49:12.850Z,6.40
2023-02-22T03:51:42.606Z,5.75
2023-02-22T03:54:11.379Z,5.80
2023-02-22T03:56:46.137Z,5.53
2023-02-22T03:59:15.614Z,5.05
2023-02-22T04:01:45.136Z,6.07
2023-02-22T04:04:13.675Z,4.40
2023-02-22T04:06:42.441Z,6.55
2023-02-22T04:09:11.236Z,5.05
2023-02-22T04:11:39.544Z,5.50
2023-02-22T04:14:08.153Z,4.90
2023-02-22T04:16:36.426Z,5.70
2023-02-22T04:19:08.735Z,5.68
2023-02-22T04:21:39.199Z,6.13
2023-02-22T04:24:12.807Z,5.60
2023-02-22T04:26:43.683Z,5.05
2023-02-22T04:29:12.790Z,5.75
2023-02-22T04:31:42.724Z,5.93
2023-02-22T04:34:11.684Z,5.40
2023-02-22T04:36:41.896Z,5.20
2023-02-22T04:39:10.595Z,6.10
2023-02-22T04:41:38.927Z,5.10
2023-02-22T04:44:09.191Z,4.40
2023-02-22T04:46:37.473Z,5.05
2023-02-22T04:51:37.320Z,5.97
2023-02-22T04:54:11.431Z,4.65
2023-02-22T04:56:43.758Z,4.55
2023-02-22T04:59:12.391Z,4.93
2023-02-22T05:01:44.893Z,4.40
2023-02-22T05:04:13.426Z,5.75
2023-02-22T05:06:41.834Z,5.30
2023-02-22T05:11:38.036Z,5.20
2023-02-22T05:16:34.348Z,4.50
2023-02-22T05:21:30.604Z,4.00
2023-02-22T05:23:58.857Z,4.35
2023-02-22T05:26:27.198Z,4.70
2023-02-22T05:31:23.392Z,4.95
2023-02-22T05:36:19.508Z,3.97
2023-02-22T05:38:47.713Z,5.15
2023-02-22T05:41:16.486Z,4.88
2023-02-22T05:43:45.127Z,4.45
2023-02-22T05:48:41.381Z,4.55
2023-02-22T05:53:37.907Z,3.97
2023-02-22T05:56:06.558Z,4.93
2023-02-22T05:58:34.928Z,4.72
2023-02-22T06:01:03.508Z,4.78
2023-02-22T06:03:32.036Z,4.78
2023-02-22T06:06:09.329Z,4.63
2023-02-22T06:08:37.722Z,4.45
2023-02-22T06:13:34.047Z,4.72
2023-02-22T06:16:02.777Z,3.95
2023-02-22T06:18:30.966Z,4.35
2023-02-22T06:21:00.258Z,4.45
2023-02-22T06:23:28.650Z,4.53
2023-02-22T06:25:56.812Z,4.00
2023-02-22T06:28:25.090Z,3.75
2023-02-22T06:30:53.500Z,3.83
2023-02-22T06:33:21.736Z,4.18
2023-02-22T06:35:49.972Z,4.70
2023-02-22T06:38:26.172Z,4.05
2023-02-22T06:40:57.792Z,4.28
2023-02-22T06:43:26.558Z,3.97
2023-02-22T06:46:02.537Z,4.45
2023-02-22T06:48:31.093Z,3.50
2023-02-22T06:50:59.276Z,4.35
2023-02-22T06:53:27.476Z,3.40
2023-02-22T06:58:23.565Z,4.47
2023-02-22T07:00:52.121Z,5.20
2023-02-22T07:03:25.871Z,4.00
2023-02-22T07:05:57.223Z,4.63
2023-02-22T07:08:25.701Z,4.63
2023-02-22T07:13:27.438Z,3.97
2023-02-22T07:15:56.042Z,4.25
2023-02-22T07:18:24.469Z,4.13
2023-02-22T07:23:21.084Z,3.85
2023-02-22T07:25:49.468Z,3.75
2023-02-22T07:28:20.530Z,3.85
2023-02-22T07:30:52.317Z,4.93
2023-02-22T07:33:20.650Z,3.63
2023-02-22T07:35:50.633Z,4.07
2023-02-22T07:38:20.280Z,4.00
2023-02-22T07:40:49.054Z,3.53
2023-02-22T07:43:22.500Z,4.45
2023-02-22T07:45:53.179Z,4.07
2023-02-22T07:48:23.275Z,4.05
2023-02-22T07:50:58.816Z,4.63
2023-02-22T07:53:31.123Z,4.93
2023-02-22T07:56:00.866Z,3.92
2023-02-22T07:58:31.374Z,4.13
2023-02-22T08:01:00.111Z,4.65
2023-02-22T08:03:28.647Z,4.20
2023-02-22T08:08:25.753Z,3.65
2023-02-22T08:13:23.108Z,4.35
2023-02-22T08:15:53.536Z,5.15
2023-02-22T08:18:23.831Z,4.38
2023-02-22T08:20:53.024Z,4.10
2023-02-22T08:23:23.390Z,4.47
2023-02-22T08:25:52.290Z,4.28
2023-02-22T08:28:25.249Z,4.40
2023-02-22T08:30:53.857Z,4.38
2023-02-22T08:33:22.899Z,3.72
2023-02-22T08:35:51.582Z,4.03
2023-02-22T08:38:29.010Z,4.07
2023-02-22T08:40:57.342Z,4.45
2023-02-22T08:43:25.689Z,4.28
2023-02-22T08:45:56.907Z,4.10
2023-02-22T08:48:25.724Z,4.53
2023-02-22T08:50:53.961Z,4.32
2023-02-22T08:53:22.197Z,3.70
2023-02-22T08:55:50.397Z,4.57
2023-02-22T08:58:18.729Z,3.67
2023-02-22T09:00:46.945Z,3.83
2023-02-22T09:05:44.877Z,4.47
2023-02-22T09:08:13.270Z,4.93
2023-02-22T09:10:41.606Z,4.13
2023-02-22T09:13:09.903Z,4.68
2023-02-22T09:18:09.077Z,4.97
2023-02-22T09:20:37.754Z,4.07
2023-02-22T09:23:07.295Z,4.93
2023-02-22T09:25:35.986Z,4.93
2023-02-22T09:28:04.163Z,4.45
2023-02-22T09:30:36.510Z,4.80
2023-02-22T09:33:08.233Z,4.25
2023-02-22T09:35:37.268Z,4.90
2023-02-22T09:38:06.269Z,4.45
2023-02-22T09:40:37.114Z,4.57
2023-02-22T09:43:26.856Z,5.93
2023-02-22T09:46:13.492Z,4.30
2023-02-22T09:49:14.541Z,4.93
2023-02-22T09:51:48.775Z,5.10
2023-02-22T09:54:34.717Z,5.15
2023-02-22T09:57:09.794Z,5.28
2023-02-22T09:59:46.780Z,5.35
2023-02-22T10:02:37.331Z,5.30
2023-02-22T10:05:29.956Z,5.55
2023-02-22T10:08:01.589Z,5.38
2023-02-22T10:10:34.443Z,4.88
2023-02-22T10:13:02.642Z,5.22
2023-02-22T10:15:46.057Z,5.22
2023-02-22T10:18:32.553Z,5.13
2023-02-22T10:21:10.004Z,5.65
2023-02-22T10:23:47.942Z,5.53
2023-02-22T10:26:18.464Z,5.50
2023-02-22T10:29:11.643Z,5.05
2023-02-22T10:31:49.671Z,6.40
2023-02-22T10:34:26.497Z,5.38
2023-02-22T10:37:24.960Z,5.50
2023-02-22T10:39:58.923Z,6.18
2023-02-22T10:42:28.658Z,6.55
2023-02-22T10:44:57.038Z,5.75
2023-02-22T10:52:34.584Z,5.78
2023-02-22T10:55:14.984Z,5.60
2023-02-22T10:57:49.732Z,5.38
2023-02-22T11:00:28.532Z,6.00
2023-02-22T11:03:17.923Z,5.85
2023-02-22T11:05:47.215Z,6.07
2023-02-22T11:08:31.947Z,6.45
2023-02-22T11:11:20.870Z,5.72
2023-02-22T11:13:55.903Z,6.13
2023-02-22T11:16:39.443Z,6.43
2023-02-22T11:19:17.305Z,6.07
2023-02-22T11:21:45.893Z,6.10
2023-02-22T11:26:50.623Z,5.95
2023-02-22T11:29:34.648Z,5.75
2023-02-22T11:32:13.966Z,6.22
2023-02-22T11:34:43.420Z,5.93
2023-02-22T11:37:19.699Z,5.55
2023-02-22T11:39:48.004Z,6.07
2023-02-22T11:42:28.208Z,6.13
2023-02-22T11:45:25.573Z,6.40
2023-02-22T11:48:01.834Z,5.25
2023-02-22T11:50:46.087Z,5.97
2023-02-22T11:53:32.924Z,5.50
2023-02-22T11:56:28.415Z,6.57
2023-02-22T11:59:33.368Z,6.07
2023-02-22T12:02:26.761Z,5.30
2023-02-22T12:05:12.655Z,6.78
2023-02-22T12:08:10.725Z,6.65
2023-02-22T12:11:02.318Z,5.55
2023-02-22T12:14:02.568Z,6.00
2023-02-22T12:16:59.015Z,5.15
2023-02-22T12:19:45.287Z,4.72
2023-02-22T12:22:21.389Z,6.82
2023-02-22T12:25:27.155Z,5.35
2023-02-22T12:28:19.055Z,5.78
2023-02-22T12:31:03.165Z,5.82
2023-02-22T12:33:43.042Z,8.05
2023-02-22T12:36:16.409Z,6.32
2023-02-22T12:38:49.844Z,5.82
2023-02-22T12:41:24.016Z,5.72
2023-02-22T12:43:55.511Z,7.50
2023-02-22T12:46:46.651Z,6.25
2023-02-22T12:49:22.027Z,5.60
2023-02-22T12:52:35.615Z,5.93
2023-02-22T12:55:25.706Z,5.85
2023-02-22T12:58:06.603Z,5.80
2023-02-22T13:00:53.363Z,4.93
2023-02-22T13:03:42.719Z,6.50
2023-02-22T13:06:14.043Z,5.95
2023-02-22T13:09:02.845Z,6.57
2023-02-22T13:11:47.425Z,6.47
2023-02-22T13:14:52.618Z,6.22
2023-02-22T13:17:47.895Z,5.60
2023-02-22T13:20:28.191Z,5.53
2023-02-22T13:23:04.165Z,6.53
2023-02-22T13:25:56.232Z,5.85
2023-02-22T13:28:33.676Z,5.85
2023-02-22T13:31:22.843Z,4.85
2023-02-22T13:34:20.680Z,6.00
2023-02-22T13:36:48.997Z,6.43
2023-02-22T13:39:35.582Z,5.13
2023-02-22T13:42:19.149Z,5.53
2023-02-22T13:45:17.063Z,5.47
2023-02-22T13:47:56.302Z,5.32
2023-02-22T13:50:42.791Z,5.85
2023-02-22T13:53:24.299Z,5.50
2023-02-22T13:55:58.842Z,5.55
2023-02-22T13:58:27.629Z,4.70
2023-02-22T14:01:00.352Z,5.30
2023-02-22T14:03:31.871Z,4.82
2023-02-22T14:06:00.550Z,5.32
2023-02-22T14:08:28.723Z,6.00
2023-02-22T14:11:01.380Z,5.72
2023-02-22T14:13:32.248Z,5.85
2023-02-22T14:16:00.757Z,6.40
2023-02-22T14:21:09.083Z,5.50
2023-02-22T14:23:41.293Z,6.43
2023-02-22T14:26:18.905Z,6.20
2023-02-22T14:28:57.644Z,7.57
2023-02-22T14:31:36.481Z,6.13
2023-02-22T14:34:05.748Z,6.88
2023-02-22T14:36:54.544Z,5.43
2023-02-22T14:39:33.576Z,5.78
2023-02-22T14:42:11.266Z,6.32
2023-02-22T14:44:57.846Z,6.65
2023-02-22T14:47:35.167Z,6.05
2023-02-22T14:50:14.796Z,6.47
2023-02-22T14:52:46.058Z,6.63
2023-02-22T14:55:28.992Z,7.18
2023-02-22T14:58:15.150Z,6.63
2023-02-22T15:00:44.850Z,6.85
2023-02-22T15:03:34.103Z,7.57
2023-02-22T15:06:20.579Z,7.13
2023-02-22T15:08:50.356Z,7.90
2023-02-22T15:11:24.833Z,7.47
2023-02-22T15:13:55.215Z,7.85
2023-02-22T15:16:25.774Z,8.02
2023-02-22T15:18:59.984Z,6.97
2023-02-22T15:21:30.410Z,7.75
2023-02-22T15:24:08.369Z,6.90
2023-02-22T15:26:48.983Z,6.65
2023-02-22T15:29:36.088Z,6.65
2023-02-22T15:32:28.279Z,6.70
2023-02-22T15:35:06.192Z,7.47
2023-02-22T15:37:34.427Z,8.38
2023-02-22T15:40:28.702Z,7.63
2023-02-22T15:42:56.996Z,5.97
2023-02-22T15:45:26.292Z,7.78
2023-02-22T15:47:55.384Z,7.53
2023-02-22T15:50:29.195Z,7.78
2023-02-22T15:53:06.428Z,7.47
2023-02-22T15:55:43.854Z,6.07
2023-02-22T15:58:21.001Z,6.07
2023-02-22T16:00:59.778Z,6.68
2023-02-22T16:03:28.579Z,7.20
2023-02-22T16:05:59.371Z,7.22
2023-02-22T16:08:54.022Z,6.80
2023-02-22T16:11:33.429Z,6.25
2023-02-22T16:14:05.225Z,6.05
2023-02-22T16:16:40.079Z,8.43
2023-02-22T16:19:36.960Z,6.32
2023-02-22T16:22:08.996Z,8.15
2023-02-22T16:24:38.456Z,7.93
2023-02-22T16:29:36.588Z,6.88
2023-02-22T16:37:01.319Z,7.07
2023-02-22T16:39:47.451Z,6.93
2023-02-22T16:42:16.976Z,7.85
2023-02-22T16:44:45.366Z,6.55
2023-02-22T16:49:41.314Z,7.35
2023-02-22T16:52:09.812Z,6.53
2023-02-22T16:57:23.354Z,7.28
2023-02-22T16:59:51.903Z,7.22
2023-02-22T17:02:20.811Z,7.43
2023-02-22T17:04:49.341Z,7.15
2023-02-22T17:07:22.532Z,7.53
2023-02-22T17:09:51.044Z,7.47
2023-02-22T17:12:19.492Z,7.65
2023-02-22T17:17:16.737Z,6.57
2023-02-22T17:19:45.332Z,7.97
2023-02-22T17:22:23.505Z,6.82
2023-02-22T17:27:19.731Z,7.18
2023-02-22T17:29:47.952Z,6.45
2023-02-22T17:32:16.326Z,6.88
2023-02-22T17:34:44.477Z,7.35
2023-02-22T17:37:12.984Z,7.65
2023-02-22T17:39:41.240Z,7.30
2023-02-22T17:42:09.393Z,7.45
2023-02-22T17:44:37.808Z,7.20
2023-02-22T17:47:06.053Z,6.60
2023-02-22T17:49:34.174Z,6.35
2023-02-22T17:52:02.579Z,5.95
2023-02-22T17:54:30.832Z,7.93
2023-02-22T17:56:58.938Z,7.25
2023-02-22T18:04:23.770Z,6.72
2023-02-22T18:09:19.912Z,5.63
2023-02-22T18:14:16.120Z,6.38
2023-02-22T18:16:44.552Z,6.72
2023-02-22T18:21:40.531Z,6.90
2023-02-22T18:26:36.778Z,6.53
2023-02-22T18:29:05.617Z,6.95
2023-02-22T18:31:33.828Z,6.07
2023-02-22T18:34:01.882Z,6.00
2023-02-22T18:36:30.212Z,6.47
2023-02-22T18:41:26.306Z,6.28
2023-02-22T18:43:55.843Z,6.95
2023-02-22T18:46:25.052Z,5.72
2023-02-22T18:48:57.212Z,6.18
2023-02-22T18:51:26.532Z,5.68
2023-02-22T18:53:58.999Z,6.32
2023-02-22T18:56:27.922Z,6.30
2023-02-22T18:58:57.604Z,5.85
2023-02-22T19:01:26.243Z,5.88
2023-02-22T19:03:54.773Z,5.95
2023-02-22T19:06:23.155Z,6.72
2023-02-22T19:08:51.564Z,6.05
2023-02-22T19:13:51.874Z,5.95
2023-02-22T19:16:22.012Z,5.47
2023-02-22T19:18:52.047Z,7.05
2023-02-22T19:21:21.548Z,7.28
2023-02-22T19:23:50.650Z,6.57
2023-02-22T19:26:22.113Z,6.63
2023-02-22T19:28:51.664Z,6.53
2023-02-22T19:31:25.762Z,6.47
2023-02-22T19:33:54.146Z,5.80
2023-02-22T19:36:23.677Z,6.35
2023-02-22T19:38:54.963Z,6.55
2023-02-22T19:41:24.498Z,6.32
2023-02-22T19:43:54.502Z,7.32
2023-02-22T19:46:23.019Z,7.28
2023-02-22T19:48:52.262Z,7.85
2023-02-22T19:51:22.151Z,7.28
2023-02-22T19:53:50.387Z,7.10
2023-02-22T19:56:21.896Z,6.90
2023-02-22T19:58:51.025Z,7.13
2023-02-22T20:01:28.280Z,7.20
2023-02-22T20:04:04.058Z,7.18
2023-02-22T20:06:41.322Z,7.07
2023-02-22T20:09:15.424Z,6.97
2023-02-22T20:11:43.713Z,7.80
2023-02-22T20:14:18.810Z,7.72
2023-02-22T20:16:47.373Z,8.57
2023-02-22T20:19:15.601Z,7.82
2023-02-22T20:21:43.894Z,8.10
2023-02-22T20:24:13.329Z,7.38
2023-02-22T20:26:42.676Z,8.82
2023-02-22T20:29:12.564Z,8.75
2023-02-22T20:31:42.536Z,7.80
2023-02-22T20:34:11.804Z,7.32
2023-02-22T20:38:58.192Z,8.10
2023-02-22T20:41:33.719Z,7.82
2023-02-22T20:44:03.500Z,8.10
2023-02-22T20:46:32.372Z,8.07
2023-02-22T20:52:04.344Z,8.35
2023-02-22T20:54:32.575Z,8.65
2023-02-22T20:57:01.413Z,7.53
2023-02-22T20:59:29.556Z,7.63
2023-02-22T21:01:58.042Z,8.07
2023-02-22T21:04:26.927Z,7.70
2023-02-22T21:06:55.230Z,8.18
2023-02-22T21:11:51.561Z,8.30
2023-02-22T21:16:50.941Z,8.00
2023-02-22T21:19:20.762Z,7.20
2023-02-22T21:21:48.974Z,7.95
2023-02-22T21:26:45.253Z,6.68
2023-02-22T21:29:13.579Z,7.07
2023-02-22T21:31:42.005Z,7.20
2023-02-22T21:34:13.213Z,7.05
2023-02-22T21:36:41.486Z,7.25
2023-02-22T21:39:11.680Z,7.20
2023-02-22T21:41:40.982Z,7.68
2023-02-22T21:44:09.392Z,7.13
2023-02-22T21:49:09.062Z,6.82
2023-02-22T21:51:37.386Z,7.95
2023-02-22T21:54:08.206Z,7.68
2023-02-22T21:56:39.134Z,7.35
2023-02-22T21:59:18.364Z,7.18
2023-02-22T22:01:50.409Z,7.68
2023-02-22T22:04:21.399Z,6.95
2023-02-22T22:06:52.258Z,7.45
2023-02-22T22:09:21.496Z,7.10
2023-02-22T22:11:54.880Z,7.13
2023-02-22T22:14:25.401Z,7.38
2023-02-22T22:16:56.731Z,7.07
2023-02-22T22:19:25.955Z,6.25
2023-02-22T22:21:54.209Z,8.23
2023-02-22T22:24:23.861Z,7.72
2023-02-22T22:26:53.276Z,6.85
2023-02-22T22:29:26.418Z,7.10
2023-02-22T22:31:54.902Z,6.53
2023-02-22T22:34:23.618Z,6.75
2023-02-22T22:36:51.862Z,6.10
2023-02-22T22:41:48.074Z,7.65
2023-02-22T22:44:17.027Z,7.50
2023-02-22T22:46:45.351Z,6.70
2023-02-22T22:49:15.040Z,6.97
2023-02-22T22:51:43.766Z,6.72
2023-02-22T22:54:12.056Z,6.35
2023-02-22T22:56:40.509Z,6.53
2023-02-22T23:01:40.583Z,5.88
2023-02-22T23:04:12.056Z,6.00
2023-02-22T23:06:45.981Z,6.25
2023-02-22T23:09:22.176Z,7.15
2023-02-22T23:11:53.746Z,6.00
2023-02-22T23:14:26.038Z,6.45
2023-02-22T23:16:55.689Z,6.18
2023-02-22T23:19:23.944Z,6.25
2023-02-22T23:24:21.132Z,5.70
2023-02-22T23:26:49.486Z,6.60
2023-02-22T23:31:47.279Z,6.47
2023-02-22T23:34:20.138Z,6.32
2023-02-22T23:36:48.755Z,6.03
2023-02-22T23:39:19.497Z,6.60
2023-02-22T23:41:54.560Z,6.28
2023-02-22T23:44:23.332Z,6.75
2023-02-22T23:46:51.526Z,6.00
2023-02-22T23:51:48.333Z,5.60
2023-02-22T23:54:20.416Z,5.47
2023-02-22T23:56:49.905Z,5.97
2023-02-22T23:59:18.359Z,4.70
